Time;durP1;ratioP1;P1;durP2;ratioP2;P2;SDS_P1;SDS_P2;PMS_P1;PMS_P2;Temp;Humidity;BMP_temperature;BMP_pressure;BME280_temperature;BME280_humidity;BME280_pressure;Samples;Min_cycle;Max_cycle;Signal;HPM_P1;HPM_P2
2022/01/12 00:00:27;;;;;;;6.75;5.68;;;-2.20;99.90;;;;;;5052960;28;20208;-75
2022/01/12 00:02:54;;;;;;;7.75;5.57;;;-2.20;99.90;;;;;;5052448;28;20197;-77
2022/01/12 00:05:22;;;;;;;6.88;5.40;;;-2.20;99.90;;;;;;5051603;28;20225;-76
2022/01/12 00:07:50;;;;;;;9.00;6.20;;;-2.20;99.90;;;;;;5052973;28;20220;-76
2022/01/12 00:10:19;;;;;;;7.95;5.93;;;-2.20;99.90;;;;;;5052847;28;20311;-77
2022/01/12 00:12:46;;;;;;;8.15;6.30;;;-2.20;99.90;;;;;;5052325;28;20672;-76
2022/01/12 00:15:14;;;;;;;6.60;5.90;;;-2.20;99.90;;;;;;5052556;28;20221;-76
2022/01/12 00:17:41;;;;;;;8.00;6.13;;;-2.20;99.90;;;;;;5052793;28;20201;-76
2022/01/12 00:20:08;;;;;;;9.70;7.30;;;-2.20;99.90;;;;;;5052645;28;20201;-77
2022/01/12 00:22:37;;;;;;;11.95;7.30;;;-2.30;99.90;;;;;;5052291;28;20205;-75
2022/01/12 00:25:22;;;;;;;8.45;6.50;;;-2.20;99.90;;;;;;5052457;28;20217;-76
2022/01/12 00:33:20;;;;;;;9.77;6.57;;;-2.30;99.90;;;;;;5052221;28;20691;-76
2022/01/12 00:35:48;;;;;;;7.45;6.05;;;-2.30;99.90;;;;;;5052532;28;20201;-76
2022/01/12 00:38:17;;;;;;;10.35;6.00;;;-2.30;99.90;;;;;;5052172;28;20205;-76
2022/01/12 00:40:48;;;;;;;8.55;5.88;;;-2.40;99.90;;;;;;5052438;28;20208;-76
2022/01/12 00:43:17;;;;;;;11.60;6.70;;;-2.40;99.90;;;;;;5051834;28;20225;-75
2022/01/12 00:45:45;;;;;;;11.27;6.45;;;-2.40;99.90;;;;;;5052486;28;20204;-75
2022/01/12 00:48:13;;;;;;;9.88;6.55;;;-2.40;99.90;;;;;;5051928;28;20200;-76
2022/01/12 00:50:40;;;;;;;8.75;6.55;;;-2.40;99.90;;;;;;5052097;28;20225;-76
2022/01/12 00:53:07;;;;;;;8.50;6.30;;;-2.40;99.90;;;;;;5051394;28;20684;-76
2022/01/12 00:55:35;;;;;;;9.10;6.32;;;-2.40;99.90;;;;;;5052010;28;20239;-76
2022/01/12 00:58:02;;;;;;;8.10;6.53;;;-2.40;99.90;;;;;;5051722;28;20672;-76
2022/01/12 01:00:31;;;;;;;9.77;7.20;;;-2.50;99.90;;;;;;5051841;28;20208;-75
2022/01/12 01:02:58;;;;;;;8.25;6.80;;;-2.50;99.90;;;;;;5051205;28;20201;-75
2022/01/12 01:05:27;;;;;;;10.43;6.80;;;-2.60;99.90;;;;;;5051863;28;20263;-76
2022/01/12 01:07:54;;;;;;;8.25;6.85;;;-2.60;99.90;;;;;;5051785;28;20201;-74
2022/01/12 01:10:29;;;;;;;8.48;6.43;;;-2.60;99.90;;;;;;5051561;28;20228;-75
2022/01/12 01:12:55;;;;;;;8.68;6.72;;;-2.60;99.90;;;;;;5051411;28;20200;-75
2022/01/12 01:15:38;;;;;;;10.18;6.97;;;-2.60;99.90;;;;;;5051525;28;20217;-75
2022/01/12 01:26:17;;;;;;;8.35;6.57;;;-2.70;99.90;;;;;;5040076;28;20200;-75
2022/01/12 01:28:44;;;;;;;9.32;7.15;;;-2.70;99.90;;;;;;5051330;28;20201;-76
2022/01/12 01:31:11;;;;;;;9.55;6.10;;;-2.70;99.90;;;;;;5050613;28;20221;-75
2022/01/12 01:33:39;;;;;;;8.88;6.70;;;-2.60;99.90;;;;;;5054463;28;20229;-78
2022/01/12 01:36:06;;;;;;;10.57;7.85;;;-2.60;99.90;;;;;;5062433;28;20203;-76
2022/01/12 01:38:33;;;;;;;9.70;6.40;;;-2.60;99.90;;;;;;5054489;28;20211;-77
2022/01/12 01:41:00;;;;;;;9.82;6.85;;;-2.70;99.90;;;;;;5051781;28;20205;-77
2022/01/12 01:43:41;;;;;;;7.97;7.13;;;-2.70;99.90;;;;;;5051791;28;20216;-78
2022/01/12 01:54:22;;;;;;;7.50;5.95;;;-2.80;99.90;;;;;;5050955;28;20245;-77
2022/01/12 01:56:49;;;;;;;8.65;5.55;;;-2.80;99.90;;;;;;5051073;28;20205;-76
2022/01/12 01:59:16;;;;;;;8.00;6.18;;;-2.90;99.90;;;;;;5050831;28;20583;-77
2022/01/12 02:01:43;;;;;;;7.72;6.57;;;-2.90;99.90;;;;;;5049679;28;20200;-76
2022/01/12 02:04:11;;;;;;;6.55;5.90;;;-2.90;99.90;;;;;;5050356;28;20235;-76
2022/01/12 02:06:39;;;;;;;8.90;6.60;;;-2.90;99.90;;;;;;5050724;28;20205;-76
2022/01/12 02:09:06;;;;;;;9.25;6.72;;;-3.00;99.90;;;;;;5051077;28;20205;-76
2022/01/12 02:11:33;;;;;;;8.80;6.65;;;-3.00;99.90;;;;;;5050954;28;20641;-76
2022/01/12 02:14:00;;;;;;;9.73;6.40;;;-3.00;99.90;;;;;;5050842;28;20220;-77
2022/01/12 02:16:33;;;;;;;7.93;6.30;;;-3.00;99.90;;;;;;5050660;28;20204;-76
2022/01/12 02:19:13;;;;;;;7.20;5.90;;;-3.10;99.90;;;;;;5050448;28;20197;-76
2022/01/12 02:35:47;;;;;;;8.50;5.90;;;-3.10;99.90;;;;;;5060096;28;20715;-78
2022/01/12 02:41:00;;;;;;;10.15;6.68;;;-3.20;99.90;;;;;;5058963;28;20277;-78
2022/01/12 02:50:32;;;;;;;7.13;5.53;;;-3.20;99.90;;;;;;5058180;28;20611;-77
2022/01/12 02:54:35;;;;;;;7.40;6.15;;;-3.10;99.90;;;;;;5047465;28;20213;-77
2022/01/12 02:57:01;;;;;;;9.10;6.47;;;-3.20;99.90;;;;;;5057325;28;20660;-77
2022/01/12 02:59:28;;;;;;;8.60;6.72;;;-3.20;99.90;;;;;;5065995;28;20205;-77
2022/01/12 03:05:01;;;;;;;7.43;5.65;;;-3.30;99.90;;;;;;5056313;28;20219;-77
2022/01/12 03:07:36;;;;;;;6.38;5.43;;;-3.30;99.90;;;;;;5067065;28;20204;-78
2022/01/12 03:10:04;;;;;;;8.02;6.20;;;-3.40;99.90;;;;;;5072250;28;20576;-79
2022/01/12 03:12:31;;;;;;;6.78;5.95;;;-3.40;99.90;;;;;;5072753;28;20249;-78
2022/01/12 03:14:57;;;;;;;9.82;6.80;;;-3.40;99.90;;;;;;5061554;28;20232;-76
2022/01/12 03:17:24;;;;;;;8.45;5.70;;;-3.40;99.90;;;;;;5055585;28;20209;-77
2022/01/12 03:19:51;;;;;;;9.80;7.20;;;-3.40;99.90;;;;;;5057046;28;20691;-77
2022/01/12 03:22:18;;;;;;;7.72;6.22;;;-3.40;99.90;;;;;;5063783;28;20197;-77
2022/01/12 03:24:44;;;;;;;7.82;6.00;;;-3.50;99.90;;;;;;5062294;28;20217;-77
2022/01/12 03:27:15;;;;;;;7.60;6.28;;;-3.50;99.90;;;;;;5063604;28;20197;-77
2022/01/12 03:29:43;;;;;;;9.02;6.45;;;-3.50;99.90;;;;;;5060154;28;20224;-77
2022/01/12 03:32:12;;;;;;;8.45;6.72;;;-3.60;99.90;;;;;;5057348;28;20227;-77
2022/01/12 03:34:41;;;;;;;10.85;6.50;;;-3.60;99.90;;;;;;5056100;28;20642;-77
2022/01/12 03:37:40;;;;;;;7.82;6.63;;;-3.60;99.90;;;;;;5054494;28;20225;-76
2022/01/12 03:40:05;;;;;;;9.55;7.15;;;-3.60;99.90;;;;;;5053505;28;20591;-76
2022/01/12 03:42:33;;;;;;;9.98;6.35;;;-3.60;99.90;;;;;;5052678;28;20689;-75
2022/01/12 03:45:00;;;;;;;7.32;5.60;;;-3.60;99.90;;;;;;5053430;28;20225;-77
2022/01/12 03:49:55;;;;;;;7.88;5.55;;;-3.70;99.90;;;;;;5019571;28;20233;-70
2022/01/12 03:52:21;;;;;;;9.57;6.60;;;-3.70;99.90;;;;;;5010536;28;20222;-71
2022/01/12 03:54:48;;;;;;;9.20;7.10;;;-3.70;99.90;;;;;;5013331;28;20219;-72
2022/01/12 03:57:15;;;;;;;8.70;6.45;;;-3.70;99.90;;;;;;5013308;28;20586;-71
2022/01/12 03:59:43;;;;;;;8.40;6.75;;;-3.70;99.90;;;;;;5013115;28;20692;-71
2022/01/12 04:02:09;;;;;;;9.43;6.97;;;-3.70;99.90;;;;;;5012952;28;20198;-70
2022/01/12 04:04:52;;;;;;;8.15;6.65;;;-3.70;99.90;;;;;;5013216;28;20230;-70
2022/01/12 04:10:04;;;;;;;7.72;6.50;;;-3.70;99.90;;;;;;5013437;28;20225;-72
2022/01/12 04:12:31;;;;;;;9.15;6.88;;;-3.70;99.90;;;;;;5012446;28;20222;-72
2022/01/12 04:14:59;;;;;;;8.80;6.85;;;-3.80;99.90;;;;;;5012898;28;20234;-72
2022/01/12 04:17:25;;;;;;;8.60;6.55;;;-3.70;99.90;;;;;;5012990;28;20556;-72
2022/01/12 04:19:52;;;;;;;9.30;7.38;;;-3.70;99.90;;;;;;5012846;28;20202;-72
2022/01/12 04:24:59;;;;;;;8.55;7.10;;;-3.70;99.90;;;;;;5012407;28;20214;-71
2022/01/12 04:27:26;;;;;;;10.93;7.93;;;-3.80;99.90;;;;;;5012997;28;20226;-72
2022/01/12 04:29:53;;;;;;;10.95;7.50;;;-3.80;99.90;;;;;;5012756;28;20237;-73
2022/01/12 04:32:23;;;;;;;11.02;7.25;;;-3.80;99.90;;;;;;5012124;28;20227;-72
2022/01/12 04:34:50;;;;;;;9.77;7.05;;;-3.80;99.90;;;;;;5012581;28;20234;-71
2022/01/12 04:37:16;;;;;;;9.00;7.07;;;-3.80;99.90;;;;;;5012692;28;20285;-71
2022/01/12 04:39:43;;;;;;;12.77;8.20;;;-3.90;99.90;;;;;;5012429;28;20696;-71
2022/01/12 04:42:10;;;;;;;9.02;7.35;;;-3.90;99.90;;;;;;5012104;28;20589;-71
2022/01/12 04:44:43;;;;;;;10.48;7.15;;;-3.90;99.90;;;;;;5012478;28;20223;-71
2022/01/12 04:47:17;;;;;;;9.98;7.50;;;-3.90;99.90;;;;;;5026511;28;20210;-72
2022/01/12 04:49:48;;;;;;;9.32;7.68;;;-4.00;99.90;;;;;;5027574;28;20206;-72
2022/01/12 04:52:15;;;;;;;10.10;7.53;;;-4.00;99.90;;;;;;5029459;28;20226;-70
2022/01/12 04:54:42;;;;;;;10.80;7.82;;;-4.00;99.90;;;;;;5029067;28;20222;-71
2022/01/12 04:57:09;;;;;;;7.97;6.85;;;-4.00;99.90;;;;;;5014011;28;20230;-73
2022/01/12 04:59:42;;;;;;;11.00;7.93;;;-4.00;99.90;;;;;;5013397;28;20202;-71
2022/01/12 05:06:23;;;;;;;10.63;8.40;;;-4.00;99.90;;;;;;5011970;28;20261;-72
2022/01/12 05:07:57;;;;;;;13.38;8.43;;;-4.00;99.90;;;;;;5011761;28;20696;-71
2022/01/12 05:13:08;;;;;;;11.52;7.97;;;-4.00;99.90;;;;;;5011445;28;20228;-72
2022/01/12 05:15:36;;;;;;;13.77;8.30;;;-4.10;99.90;;;;;;5011434;28;20222;-70
2022/01/12 05:18:03;;;;;;;11.70;8.93;;;-4.00;99.90;;;;;;5011800;28;20199;-70
2022/01/12 05:20:31;;;;;;;12.85;8.98;;;-4.00;99.90;;;;;;5011839;28;20202;-70
2022/01/12 05:22:58;;;;;;;11.07;7.68;;;-4.00;99.90;;;;;;5011199;28;20670;-71
2022/01/12 05:25:25;;;;;;;12.23;9.55;;;-4.00;99.90;;;;;;5011727;28;20230;-71
2022/01/12 05:27:53;;;;;;;11.27;8.40;;;-4.10;99.90;;;;;;5011285;28;20229;-70
2022/01/12 05:30:20;;;;;;;11.60;8.35;;;-4.10;99.90;;;;;;5011498;28;20217;-70
2022/01/12 05:32:47;;;;;;;10.95;7.80;;;-4.00;99.90;;;;;;5011120;28;20329;-70
2022/01/12 05:35:16;;;;;;;13.52;8.70;;;-3.90;99.90;;;;;;5011422;28;20657;-70
2022/01/12 05:37:45;;;;;;;12.10;8.32;;;-4.00;99.90;;;;;;5011439;28;20677;-69
2022/01/12 05:40:13;;;;;;;10.10;8.43;;;-4.10;99.90;;;;;;5011432;28;20237;-70
2022/01/12 05:42:40;;;;;;;11.00;8.75;;;-4.10;99.90;;;;;;5009978;28;20202;-71
2022/01/12 05:45:08;;;;;;;12.77;9.10;;;-4.10;99.90;;;;;;5011016;28;20222;-70
2022/01/12 05:49:33;;;;;;;12.75;8.73;;;-4.00;99.90;;;;;;5010648;28;20203;-70
2022/01/12 05:50:25;;;;;;;14.13;9.80;;;-4.00;99.90;;;;;;5010817;28;20559;-69
2022/01/12 05:52:53;;;;;;;11.82;8.90;;;-4.00;99.90;;;;;;5010360;28;20732;-71
2022/01/12 05:55:21;;;;;;;11.77;8.85;;;-4.00;99.90;;;;;;5010641;28;20230;-72
2022/01/12 05:57:48;;;;;;;13.32;9.63;;;-4.00;99.90;;;;;;5010775;28;20207;-71
2022/01/12 06:00:17;;;;;;;11.02;8.50;;;-4.00;99.90;;;;;;5011094;28;20632;-72
2022/01/12 06:02:45;;;;;;;11.15;8.80;;;-4.00;99.90;;;;;;5011573;28;20206;-70
2022/01/12 06:05:14;;;;;;;12.32;8.95;;;-4.00;99.90;;;;;;5014484;28;20218;-71
2022/01/12 06:07:41;;;;;;;10.65;8.70;;;-4.00;99.90;;;;;;5020725;28;20281;-72
2022/01/12 06:10:10;;;;;;;13.00;8.02;;;-4.10;99.90;;;;;;5021318;28;20210;-72
2022/01/12 06:12:37;;;;;;;10.77;8.43;;;-4.00;99.90;;;;;;5018969;28;20721;-71
2022/01/12 06:15:04;;;;;;;11.23;9.20;;;-4.10;99.90;;;;;;5019885;28;20600;-71
2022/01/12 06:17:31;;;;;;;13.00;9.85;;;-4.10;99.90;;;;;;5024110;28;20576;-70
2022/01/12 06:19:57;;;;;;;12.10;9.13;;;-4.10;99.90;;;;;;5030538;28;20216;-72
2022/01/12 06:22:24;;;;;;;11.40;9.05;;;-4.20;99.90;;;;;;5029809;28;20198;-71
2022/01/12 06:24:51;;;;;;;14.23;10.32;;;-4.20;99.90;;;;;;5019753;28;20295;-70
2022/01/12 06:27:21;;;;;;;12.82;9.02;;;-4.30;99.90;;;;;;5020688;28;20199;-71
2022/01/12 06:30:01;;;;;;;13.48;8.60;;;-4.30;99.90;;;;;;5019561;28;20749;-71
2022/01/12 06:32:28;;;;;;;17.33;10.23;;;-4.30;99.90;;;;;;5020340;28;20301;-71
2022/01/12 06:34:55;;;;;;;12.98;9.55;;;-4.30;99.90;;;;;;5025618;28;20213;-71
2022/01/12 06:37:22;;;;;;;13.20;9.15;;;-4.30;99.90;;;;;;5029877;28;20216;-71
2022/01/12 06:39:49;;;;;;;10.90;8.85;;;-4.30;99.90;;;;;;5030312;28;20202;-71
2022/01/12 06:42:15;;;;;;;13.30;9.63;;;-4.30;99.90;;;;;;5029500;28;20236;-72
2022/01/12 06:44:43;;;;;;;14.20;8.65;;;-4.40;99.90;;;;;;5030111;28;20222;-70
2022/01/12 06:47:10;;;;;;;12.25;9.25;;;-4.30;99.90;;;;;;5029793;28;20214;-71
2022/01/12 06:49:37;;;;;;;10.75;8.75;;;-4.30;99.90;;;;;;5030042;28;20214;-71
2022/01/12 06:52:05;;;;;;;13.82;9.00;;;-4.30;99.90;;;;;;5029453;28;20225;-72
2022/01/12 06:54:31;;;;;;;13.80;9.30;;;-4.30;99.90;;;;;;5029891;28;20229;-71
2022/01/12 06:56:58;;;;;;;11.02;8.18;;;-4.30;99.90;;;;;;5029998;28;20208;-71
2022/01/12 06:59:25;;;;;;;10.93;9.00;;;-4.30;99.90;;;;;;5029968;28;20569;-71
2022/01/12 07:01:53;;;;;;;14.10;9.55;;;-4.30;99.90;;;;;;5029672;28;20206;-71
2022/01/12 07:04:20;;;;;;;12.65;8.65;;;-4.30;99.90;;;;;;5029516;28;20740;-71
2022/01/12 07:06:47;;;;;;;12.45;9.55;;;-4.30;99.90;;;;;;5030001;28;20202;-71
2022/01/12 07:09:13;;;;;;;26.38;9.75;;;-4.30;99.90;;;;;;5029731;28;20356;-71
2022/01/12 07:11:41;;;;;;;12.30;8.43;;;-4.30;99.90;;;;;;5029230;28;20221;-71
2022/01/12 07:14:08;;;;;;;12.55;9.20;;;-4.30;99.90;;;;;;5031598;28;20253;-71
2022/01/12 07:16:35;;;;;;;11.60;9.57;;;-4.30;99.90;;;;;;5033698;28;20205;-71
2022/01/12 07:19:03;;;;;;;15.65;9.60;;;-4.30;99.90;;;;;;5033337;28;20213;-71
2022/01/12 07:21:30;;;;;;;15.05;9.30;;;-4.30;99.90;;;;;;5033401;28;20210;-73
2022/01/12 07:23:57;;;;;;;14.00;9.95;;;-4.30;99.90;;;;;;5033450;28;20222;-71
2022/01/12 07:26:24;;;;;;;15.20;9.77;;;-4.30;99.90;;;;;;5040176;28;20292;-72
2022/01/12 07:28:53;;;;;;;12.18;8.68;;;-4.30;99.90;;;;;;5036302;28;20202;-73
2022/01/12 07:31:20;;;;;;;15.10;11.73;;;-4.20;99.90;;;;;;5036636;28;20467;-73
2022/01/12 07:33:47;;;;;;;14.15;10.52;;;-4.20;99.90;;;;;;5041199;28;20237;-72
2022/01/12 07:36:15;;;;;;;12.25;9.55;;;-4.20;99.90;;;;;;5040095;28;20209;-72
2022/01/12 07:38:42;;;;;;;15.05;9.90;;;-4.20;99.90;;;;;;5032223;28;20559;-71
2022/01/12 07:41:09;;;;;;;13.73;9.20;;;-4.10;99.90;;;;;;5032638;28;20198;-70
2022/01/12 07:43:35;;;;;;;14.32;10.40;;;-3.90;99.90;;;;;;5033018;28;20205;-71
2022/01/12 07:46:02;;;;;;;14.10;10.00;;;-3.80;99.90;;;;;;5033281;28;20213;-70
2022/01/12 07:48:29;;;;;;;13.40;9.95;;;-3.80;99.90;;;;;;5032199;28;20221;-71
2022/01/12 07:50:55;;;;;;;12.65;9.68;;;-3.60;99.90;;;;;;5032139;28;20689;-70
2022/01/12 07:53:24;;;;;;;13.82;10.85;;;-3.60;99.90;;;;;;5032743;28;20222;-71
2022/01/12 07:55:51;;;;;;;16.38;10.73;;;-3.50;99.90;;;;;;5032695;28;20635;-71
2022/01/12 07:58:18;;;;;;;16.50;10.30;;;-3.50;99.90;;;;;;5032984;28;20202;-71
2022/01/12 08:00:44;;;;;;;18.77;11.63;;;-3.40;99.90;;;;;;5032436;28;20224;-71
2022/01/12 08:03:12;;;;;;;13.30;11.07;;;-3.20;99.90;;;;;;5032566;28;20197;-70
2022/01/12 08:05:39;;;;;;;14.57;10.50;;;-3.00;99.90;;;;;;5032608;28;20226;-71
2022/01/12 08:08:05;;;;;;;15.50;10.60;;;-2.80;99.90;;;;;;5032401;28;20269;-72
2022/01/12 08:10:34;;;;;;;17.95;10.43;;;-2.40;99.90;;;;;;5032595;28;20202;-70
2022/01/12 08:13:00;;;;;;;19.23;10.63;;;-1.90;99.90;;;;;;5031635;28;20226;-71
2022/01/12 08:15:27;;;;;;;13.25;10.45;;;-1.50;99.90;;;;;;5032521;28;20222;-71
2022/01/12 08:17:54;;;;;;;12.40;9.63;;;-1.00;99.90;;;;;;5017491;28;20260;-72
2022/01/12 08:20:25;;;;;;;12.80;9.13;;;-0.50;99.90;;;;;;5011387;28;20199;-73
2022/01/12 08:22:52;;;;;;;12.68;9.57;;;0.00;99.90;;;;;;5011133;28;20241;-72
2022/01/12 08:25:19;;;;;;;11.88;9.43;;;0.60;99.90;;;;;;5010883;28;20229;-71
2022/01/12 08:27:47;;;;;;;10.80;9.25;;;1.10;99.90;;;;;;5011466;28;20207;-72
2022/01/12 08:30:17;;;;;;;11.40;8.70;;;1.70;99.90;;;;;;5011616;28;20198;-73
2022/01/12 08:32:45;;;;;;;9.85;8.75;;;2.10;99.90;;;;;;5010848;28;20290;-73
2022/01/12 08:35:12;;;;;;;9.52;7.70;;;2.70;99.90;;;;;;5012155;28;20250;-73
2022/01/12 08:37:39;;;;;;;10.75;9.63;;;3.30;99.90;;;;;;5014552;28;20208;-71
2022/01/12 08:40:07;;;;;;;9.05;8.15;;;4.00;99.90;;;;;;5011736;28;20202;-72
2022/01/12 08:42:34;;;;;;;9.40;8.50;;;4.90;99.90;;;;;;5011196;28;20305;-71
2022/01/12 08:45:06;;;;;;;9.75;7.82;;;5.70;99.90;;;;;;5010870;28;20736;-72
2022/01/12 08:47:33;;;;;;;11.30;9.27;;;5.90;99.90;;;;;;5010998;28;20213;-71
2022/01/12 08:50:00;;;;;;;9.55;8.32;;;6.00;99.90;;;;;;5011205;28;20198;-70
2022/01/12 08:52:29;;;;;;;9.98;8.98;;;6.40;99.90;;;;;;5010678;28;20673;-70
2022/01/12 08:54:56;;;;;;;9.88;8.88;;;6.50;99.90;;;;;;5012234;28;20635;-70
2022/01/12 08:57:22;;;;;;;9.80;7.82;;;6.30;99.90;;;;;;5012852;28;20202;-70
2022/01/12 08:59:49;;;;;;;9.40;7.82;;;5.80;99.90;;;;;;5011250;28;20575;-69
2022/01/12 09:02:17;;;;;;;9.15;8.13;;;5.20;99.90;;;;;;5010474;28;20284;-71
2022/01/12 09:04:44;;;;;;;8.95;7.85;;;5.00;99.90;;;;;;5010861;28;20223;-71
2022/01/12 09:07:11;;;;;;;9.63;7.93;;;5.00;99.90;;;;;;5011031;28;20246;-69
2022/01/12 09:09:38;;;;;;;8.88;7.97;;;4.70;99.90;;;;;;5010944;28;20203;-71
2022/01/12 09:12:06;;;;;;;15.93;9.02;;;4.20;99.90;;;;;;5010457;28;20217;-71
2022/01/12 09:14:34;;;;;;;9.35;8.35;;;3.90;99.90;;;;;;5011181;28;20238;-70
2022/01/12 09:17:01;;;;;;;9.70;7.82;;;3.40;99.90;;;;;;5010063;28;20693;-71
2022/01/12 09:19:30;;;;;;;11.77;7.55;;;3.10;99.90;;;;;;5010688;28;20213;-70
2022/01/12 09:21:57;;;;;;;9.23;8.15;;;3.10;99.90;;;;;;5009557;28;20628;-73
2022/01/12 09:24:24;;;;;;;10.48;8.25;;;3.40;99.90;;;;;;5010382;28;20748;-70
2022/01/12 09:26:50;;;;;;;8.55;7.30;;;3.90;99.90;;;;;;5010224;28;20248;-71
2022/01/12 09:29:18;;;;;;;8.18;7.28;;;4.90;99.90;;;;;;5010760;28;20253;-72
2022/01/12 09:31:45;;;;;;;9.07;7.20;;;5.90;99.90;;;;;;5009576;28;20253;-72
2022/01/12 09:34:12;;;;;;;10.43;8.02;;;5.80;99.80;;;;;;5010378;28;20230;-71
2022/01/12 09:36:40;;;;;;;7.95;7.15;;;5.70;99.90;;;;;;5010257;28;20221;-71
2022/01/12 09:39:08;;;;;;;7.75;6.78;;;5.90;99.70;;;;;;5009602;28;20727;-70
2022/01/12 09:41:35;;;;;;;6.95;6.25;;;6.40;99.50;;;;;;5010067;28;20202;-72
2022/01/12 09:44:02;;;;;;;6.75;6.10;;;8.30;97.80;;;;;;5010301;28;20218;-73
2022/01/12 09:46:29;;;;;;;7.70;6.90;;;9.50;96.70;;;;;;5010246;28;20301;-70
2022/01/12 09:48:59;;;;;;;8.20;7.10;;;10.30;93.90;;;;;;5024080;28;20217;-70
2022/01/12 09:51:26;;;;;;;7.50;6.65;;;10.10;93.50;;;;;;5029531;28;20271;-70
2022/01/12 09:53:54;;;;;;;7.47;6.65;;;9.60;94.50;;;;;;5029220;28;20592;-71
2022/01/12 09:56:24;;;;;;;7.13;6.43;;;9.20;95.20;;;;;;5029697;28;20208;-72
2022/01/12 09:58:53;;;;;;;7.53;6.80;;;9.60;94.60;;;;;;5029856;28;20206;-70
2022/01/12 10:01:27;;;;;;;7.93;7.10;;;10.20;93.40;;;;;;5028700;28;20285;-70
2022/01/12 10:04:05;;;;;;;7.80;6.32;;;11.40;93.70;;;;;;5029721;28;20372;-72
2022/01/12 10:06:36;;;;;;;7.10;6.40;;;12.70;91.70;;;;;;5023492;28;20193;-72
2022/01/12 10:09:04;;;;;;;7.03;6.05;;;12.30;90.60;;;;;;5028204;28;20208;-69
2022/01/12 10:11:31;;;;;;;9.10;7.40;;;13.10;91.00;;;;;;5044011;28;20212;-70
2022/01/12 10:13:58;;;;;;;7.97;7.18;;;14.50;91.00;;;;;;5048331;28;20224;-69
2022/01/12 10:16:26;;;;;;;7.63;6.85;;;15.40;89.90;;;;;;5048564;28;20292;-70
2022/01/12 10:18:54;;;;;;;8.33;7.47;;;15.80;87.10;;;;;;5048602;28;20201;-70
2022/01/12 10:21:29;;;;;;;7.50;6.10;;;15.80;85.10;;;;;;5048041;28;20463;-70
2022/01/12 10:23:57;;;;;;;8.13;7.17;;;17.20;83.60;;;;;;5048384;28;20471;-70
2022/01/12 10:26:34;;;;;;;8.10;7.40;;;17.80;82.30;;;;;;5048904;28;20467;-71
2022/01/12 10:29:09;;;;;;;7.10;6.40;;;18.10;79.50;;;;;;5048931;28;20463;-69
2022/01/12 10:31:48;;;;;;;6.50;5.87;;;18.10;78.80;;;;;;5048480;28;20935;-71
2022/01/12 10:34:16;;;;;;;7.00;6.40;;;17.90;78.50;;;;;;5016737;28;20494;-71
2022/01/12 10:36:45;;;;;;;6.40;5.80;;;17.60;79.30;;;;;;5048369;28;20467;-72
2022/01/12 10:39:13;;;;;;;7.60;6.90;;;17.80;77.40;;;;;;5048191;28;20494;-72
2022/01/12 10:41:56;;;;;;;8.77;7.97;;;17.70;77.30;;;;;;5048212;28;20514;-70
2022/01/12 10:44:24;;;;;;;6.60;6.00;;;17.90;79.20;;;;;;5027708;28;20482;-71
2022/01/12 10:47:02;;;;;;;9.13;7.40;;;18.60;78.30;;;;;;5023409;28;20907;-71
2022/01/12 10:49:30;;;;;;;7.40;6.70;;;18.20;78.00;;;;;;5043643;28;20532;-71
2022/01/12 10:51:57;;;;;;;7.73;6.90;;;18.50;76.80;;;;;;5033873;28;20472;-71
2022/01/12 10:54:25;;;;;;;9.30;8.37;;;16.30;77.90;;;;;;5051369;28;20526;-71
2022/01/12 10:56:53;;;;;;;8.83;7.53;;;14.10;80.10;;;;;;5051378;28;20471;-70
2022/01/12 10:59:22;;;;;;;7.90;7.20;;;12.90;84.10;;;;;;5051189;28;20455;-70
2022/01/12 11:01:49;;;;;;;8.50;7.70;;;12.80;84.70;;;;;;5031186;28;20468;-70
2022/01/12 11:04:16;;;;;;;8.25;7.43;;;13.50;84.30;;;;;;5031550;28;20217;-70
2022/01/12 11:06:42;;;;;;;7.80;7.00;;;14.60;82.90;;;;;;5032058;28;20205;-68
2022/01/12 11:09:09;;;;;;;8.40;7.70;;;15.80;81.40;;;;;;5031160;28;20475;-71
2022/01/12 11:11:36;;;;;;;10.17;8.70;;;16.80;79.70;;;;;;5032275;28;20471;-71
2022/01/12 11:14:04;;;;;;;12.83;8.10;;;17.40;77.80;;;;;;5032360;28;20492;-71
2022/01/12 11:16:31;;;;;;;8.27;7.47;;;17.60;77.70;;;;;;5032546;28;20467;-72
2022/01/12 11:19:00;;;;;;;7.80;7.00;;;17.10;77.40;;;;;;5032208;28;20471;-70
2022/01/12 11:21:35;;;;;;;8.60;7.20;;;16.90;78.10;;;;;;5032318;28;20467;-71
2022/01/12 11:24:04;;;;;;;8.57;7.70;;;16.50;78.60;;;;;;5031940;28;20480;-69
2022/01/12 11:26:32;;;;;;;8.10;7.40;;;15.90;79.30;;;;;;5032833;28;20464;-70
2022/01/12 11:28:59;;;;;;;8.60;7.83;;;15.50;79.60;;;;;;5032571;28;20456;-69
2022/01/12 11:31:29;;;;;;;9.63;8.63;;;15.10;80.60;;;;;;5032030;28;20460;-71
2022/01/12 11:33:56;;;;;;;7.83;6.90;;;15.30;80.30;;;;;;5032047;28;20488;-67
2022/01/12 11:36:27;;;;;;;9.07;8.20;;;15.30;79.40;;;;;;5023936;28;20472;-69
2022/01/12 11:39:00;;;;;;;8.80;7.40;;;15.20;79.30;;;;;;5011206;28;20969;-68
2022/01/12 11:41:29;;;;;;;9.18;8.27;;;15.00;80.80;;;;;;5011290;28;20481;-68
2022/01/12 11:44:02;;;;;;;8.48;7.78;;;15.20;80.00;;;;;;5011531;28;20226;-69
2022/01/12 11:46:44;;;;;;;8.63;7.82;;;15.30;80.10;;;;;;5011765;28;20213;-68
2022/01/12 11:49:11;;;;;;;9.80;8.90;;;15.00;78.70;;;;;;5011547;28;20222;-68
2022/01/12 11:51:40;;;;;;;9.57;8.57;;;14.30;79.90;;;;;;5011527;28;20211;-69
2022/01/12 11:54:10;;;;;;;8.63;7.82;;;13.60;81.40;;;;;;5011662;28;20234;-69
2022/01/12 11:56:37;;;;;;;9.75;8.18;;;13.40;82.40;;;;;;5012206;28;20206;-69
2022/01/12 11:59:09;;;;;;;9.30;8.25;;;13.10;82.90;;;;;;5010806;28;20562;-69
2022/01/12 12:01:48;;;;;;;9.73;8.77;;;12.80;82.50;;;;;;5010607;28;20725;-69
2022/01/12 12:04:24;;;;;;;9.75;8.80;;;12.20;83.40;;;;;;5011122;28;20226;-69
2022/01/12 12:07:03;;;;;;;9.55;8.43;;;11.80;84.00;;;;;;5011441;28;20217;-71
2022/01/12 12:09:39;;;;;;;11.48;8.05;;;12.00;85.00;;;;;;5010994;28;20848;-72
2022/01/12 12:12:15;;;;;;;13.00;9.63;;;12.50;84.10;;;;;;5014122;28;20205;-72
2022/01/12 12:14:43;;;;;;;9.57;8.68;;;12.10;84.80;;;;;;5031988;28;20236;-71
2022/01/12 12:17:12;;;;;;;10.63;9.00;;;12.20;85.10;;;;;;5031232;28;20218;-71
2022/01/12 12:19:39;;;;;;;11.07;9.02;;;12.40;84.20;;;;;;5031807;28;20198;-72
2022/01/12 12:22:14;;;;;;;11.27;8.52;;;12.30;84.40;;;;;;5030539;28;20232;-72
2022/01/12 12:24:42;;;;;;;9.45;8.48;;;12.10;84.40;;;;;;5031276;28;20243;-69
2022/01/12 12:27:10;;;;;;;10.73;7.85;;;11.30;86.40;;;;;;5031199;28;20665;-71
2022/01/12 12:29:38;;;;;;;8.82;7.93;;;11.00;86.50;;;;;;5031132;28;20688;-71
2022/01/12 12:32:12;;;;;;;9.15;8.02;;;11.00;87.10;;;;;;5030745;28;20198;-71
2022/01/12 12:34:42;;;;;;;9.85;8.90;;;10.70;86.20;;;;;;5031308;28;20316;-71
2022/01/12 12:37:12;;;;;;;10.95;8.75;;;9.80;88.70;;;;;;5030576;28;20205;-70
2022/01/12 12:39:40;;;;;;;9.98;8.40;;;9.40;89.50;;;;;;5030209;28;20198;-71
2022/01/12 12:42:15;;;;;;;9.95;8.93;;;9.00;89.90;;;;;;5030540;28;20557;-70
2022/01/12 12:44:42;;;;;;;10.10;8.85;;;8.70;90.70;;;;;;5031037;28;20234;-71
2022/01/12 12:47:11;;;;;;;9.82;8.73;;;8.70;91.10;;;;;;5030742;28;20209;-71
2022/01/12 12:49:47;;;;;;;11.20;8.48;;;8.80;91.00;;;;;;5030957;28;20639;-70
2022/01/12 12:52:21;;;;;;;9.70;8.70;;;8.90;90.70;;;;;;5029912;28;20208;-69
2022/01/12 12:54:48;;;;;;;9.60;8.68;;;8.60;90.60;;;;;;5030600;28;20619;-69
2022/01/12 12:57:20;;;;;;;9.55;8.55;;;8.70;91.20;;;;;;5030792;28;20210;-71
2022/01/12 12:59:48;;;;;;;10.18;8.95;;;8.40;90.90;;;;;;5030533;28;20260;-71
2022/01/12 13:02:15;;;;;;;9.52;8.40;;;8.30;91.40;;;;;;5029991;28;20650;-70
2022/01/12 13:04:41;;;;;;;10.80;9.00;;;8.30;91.30;;;;;;5030832;28;20222;-70
2022/01/12 13:07:15;;;;;;;9.93;7.63;;;8.10;91.00;;;;;;5030140;28;20205;-69
2022/01/12 13:09:42;;;;;;;12.27;8.57;;;8.30;91.40;;;;;;5030769;28;20206;-71
2022/01/12 13:12:09;;;;;;;9.93;8.80;;;8.40;91.30;;;;;;5029577;28;20214;-69
2022/01/12 13:14:42;;;;;;;12.43;9.25;;;8.30;91.30;;;;;;5029896;28;20233;-73
2022/01/12 13:17:09;;;;;;;10.13;8.18;;;8.20;91.70;;;;;;5011181;28;20745;-72
2022/01/12 13:22:26;;;;;;;9.05;7.70;;;8.00;91.80;;;;;;5009719;28;20198;-70
2022/01/12 13:24:53;;;;;;;11.43;8.98;;;8.00;92.30;;;;;;5010131;28;20229;-71
2022/01/12 13:27:21;;;;;;;9.80;8.80;;;8.00;91.90;;;;;;5009624;28;20201;-71
2022/01/12 13:29:48;;;;;;;10.50;9.05;;;8.00;91.70;;;;;;5010038;28;20210;-70
2022/01/12 13:32:16;;;;;;;10.60;8.00;;;8.20;91.80;;;;;;5008583;28;20213;-71
2022/01/12 13:34:53;;;;;;;10.57;8.13;;;8.20;91.60;;;;;;5010702;28;20703;-71
2022/01/12 13:37:20;;;;;;;8.48;7.32;;;8.30;91.70;;;;;;5022226;28;20197;-71
2022/01/12 13:39:49;;;;;;;8.80;7.95;;;8.50;91.60;;;;;;5030283;28;20661;-70
2022/01/12 13:42:15;;;;;;;10.73;8.88;;;8.50;91.70;;;;;;5029203;28;20202;-70
2022/01/12 13:44:43;;;;;;;9.43;8.43;;;8.40;91.60;;;;;;5030302;28;20220;-71
2022/01/12 13:47:21;;;;;;;10.35;8.40;;;8.10;91.80;;;;;;5030163;28;20847;-70
2022/01/12 13:49:48;;;;;;;10.75;8.10;;;7.40;92.40;;;;;;5029310;28;20206;-69
2022/01/12 13:52:18;;;;;;;9.80;8.35;;;6.70;92.90;;;;;;5029609;28;20197;-70
2022/01/12 13:54:48;;;;;;;11.70;7.90;;;6.00;93.70;;;;;;5030407;28;20291;-71
2022/01/12 13:57:18;;;;;;;9.75;7.72;;;5.50;97.10;;;;;;5029847;28;21019;-71
2022/01/12 13:59:46;;;;;;;11.88;8.27;;;5.10;96.30;;;;;;5030253;28;20236;-71